Time;durP1;ratioP1;P1;durP2;ratioP2;P2;SDS_P1;SDS_P2;PMS_P1;PMS_P2;Temp;Humidity;BMP_temperature;BMP_pressure;BME280_temperature;BME280_humidity;BME280_pressure;Samples;Min_cycle;Max_cycle;Signal;HPM_P1;HPM_P2
2022/12/04 00:00:54;;;;;;;11.77;7.45;;;19.30;54.30;;;;;;6268592;28;20116;-70
2022/12/04 00:03:57;;;;;;;10.40;7.00;;;19.30;54.30;;;;;;6269928;28;20098;-70
2022/12/04 00:06:58;;;;;;;10.73;6.97;;;19.20;54.20;;;;;;6269773;28;20024;-71
2022/12/04 00:09:59;;;;;;;8.90;6.28;;;19.30;54.30;;;;;;6269570;28;20087;-70
2022/12/04 00:13:00;;;;;;;9.50;7.07;;;19.20;54.20;;;;;;6269255;28;20027;-70
2022/12/04 00:16:03;;;;;;;9.00;6.78;;;19.20;54.20;;;;;;6269516;28;20017;-70
2022/12/04 00:19:04;;;;;;;9.88;7.15;;;19.20;54.30;;;;;;6269702;28;20029;-70
2022/12/04 00:22:06;;;;;;;9.35;6.75;;;19.30;54.30;;;;;;6269438;28;20433;-70
2022/12/04 00:25:07;;;;;;;9.77;6.45;;;19.30;54.40;;;;;;6269380;28;20562;-71
2022/12/04 00:28:08;;;;;;;9.82;7.07;;;19.20;54.20;;;;;;6268132;28;20036;-70
2022/12/04 00:31:16;;;;;;;13.55;7.32;;;19.20;54.20;;;;;;6268754;28;20080;-71
2022/12/04 00:34:17;;;;;;;10.23;7.50;;;19.30;54.40;;;;;;6268939;28;20021;-71
2022/12/04 00:37:17;;;;;;;10.27;7.28;;;19.20;54.30;;;;;;6269155;28;20470;-70
2022/12/04 00:40:18;;;;;;;9.82;7.00;;;19.20;54.30;;;;;;6269141;28;20029;-71
2022/12/04 00:43:20;;;;;;;10.00;6.75;;;19.20;54.30;;;;;;6267548;28;20072;-71
2022/12/04 00:46:21;;;;;;;11.60;7.65;;;19.20;54.30;;;;;;6267329;28;20025;-71
2022/12/04 00:49:22;;;;;;;8.48;6.30;;;19.30;54.40;;;;;;6267523;28;20064;-70
2022/12/04 00:52:23;;;;;;;9.90;6.65;;;19.20;54.30;;;;;;6267334;28;20044;-70
2022/12/04 00:55:23;;;;;;;10.48;7.25;;;19.20;54.30;;;;;;6268120;28;20059;-70
2022/12/04 00:58:24;;;;;;;11.65;7.55;;;19.20;54.30;;;;;;6267109;28;20053;-71
2022/12/04 01:01:26;;;;;;;11.23;7.28;;;19.20;54.30;;;;;;6268671;28;20490;-71
2022/12/04 01:04:26;;;;;;;9.70;6.95;;;19.20;54.30;;;;;;6267437;28;20017;-70
2022/12/04 01:07:27;;;;;;;9.45;6.68;;;19.20;54.30;;;;;;6268551;28;20535;-71
2022/12/04 01:10:28;;;;;;;12.38;8.00;;;19.20;54.30;;;;;;6268001;28;20394;-71
2022/12/04 01:13:28;;;;;;;10.68;7.35;;;19.20;54.30;;;;;;6266938;28;20025;-70
2022/12/04 01:16:33;;;;;;;11.73;7.53;;;19.20;54.30;;;;;;6267952;28;20585;-71
2022/12/04 01:19:33;;;;;;;11.30;7.28;;;19.20;54.40;;;;;;6268503;28;20025;-71
2022/12/04 01:22:34;;;;;;;10.85;7.55;;;19.20;54.30;;;;;;6266803;28;20558;-70
2022/12/04 01:25:35;;;;;;;10.63;7.57;;;19.20;54.30;;;;;;6266842;28;20695;-70
2022/12/04 01:28:36;;;;;;;12.27;8.00;;;19.20;54.30;;;;;;6266918;28;20025;-71
2022/12/04 01:31:37;;;;;;;10.52;7.47;;;19.20;54.30;;;;;;6266699;28;20398;-71
2022/12/04 01:34:37;;;;;;;11.50;7.57;;;19.20;54.30;;;;;;6266800;28;20031;-70
2022/12/04 01:37:38;;;;;;;11.30;7.53;;;19.20;54.40;;;;;;6267876;28;20438;-71
2022/12/04 01:40:43;;;;;;;10.68;7.32;;;19.20;54.30;;;;;;6268199;28;20060;-70
2022/12/04 01:43:44;;;;;;;12.25;7.82;;;19.20;54.40;;;;;;6268181;28;20096;-70
2022/12/04 01:46:49;;;;;;;10.88;7.35;;;19.20;54.40;;;;;;6266814;28;20025;-71
2022/12/04 01:49:50;;;;;;;10.43;7.57;;;19.20;54.40;;;;;;6266599;28;20032;-70
2022/12/04 01:52:51;;;;;;;12.32;8.00;;;19.20;54.40;;;;;;6268169;28;20029;-71
2022/12/04 01:55:52;;;;;;;11.75;7.40;;;19.20;54.40;;;;;;6267563;28;20094;-71
2022/12/04 01:58:57;;;;;;;13.18;8.23;;;19.20;54.40;;;;;;6267701;28;20500;-71
2022/12/04 02:02:09;;;;;;;10.48;7.50;;;19.20;54.30;;;;;;6266673;28;20405;-71
2022/12/04 02:05:14;;;;;;;9.95;7.13;;;19.20;54.40;;;;;;6266932;28;20036;-71
2022/12/04 02:08:15;;;;;;;10.13;7.55;;;19.20;54.40;;;;;;6272457;28;20108;-70
2022/12/04 02:11:25;;;;;;;12.15;8.07;;;19.20;54.40;;;;;;6271317;28;20037;-70
2022/12/04 02:14:37;;;;;;;10.48;7.32;;;19.20;54.40;;;;;;6272584;28;20028;-70
2022/12/04 02:18:02;;;;;;;12.05;8.18;;;19.20;54.40;;;;;;6270885;28;20044;-71
2022/12/04 02:21:39;;;;;;;11.20;7.40;;;19.20;54.50;;;;;;6246813;28;20446;-70
2022/12/04 02:24:52;;;;;;;13.60;8.18;;;19.20;54.50;;;;;;6247432;28;20033;-70
2022/12/04 02:28:12;;;;;;;10.77;7.40;;;19.20;54.50;;;;;;6249520;28;20040;-71
2022/12/04 02:31:19;;;;;;;12.27;7.95;;;19.20;54.40;;;;;;6264099;28;20209;-70
2022/12/04 02:34:27;;;;;;;10.63;7.60;;;19.20;54.40;;;;;;6272070;28;20021;-70
2022/12/04 02:37:36;;;;;;;11.95;8.18;;;19.20;54.40;;;;;;6271906;28;20465;-70
2022/12/04 02:40:55;;;;;;;11.88;7.82;;;19.20;54.40;;;;;;6271585;28;20142;-70
2022/12/04 02:44:03;;;;;;;12.90;7.95;;;19.20;54.40;;;;;;6270620;28;20036;-71
2022/12/04 02:47:09;;;;;;;11.77;7.53;;;19.20;55.10;;;;;;6272023;28;20028;-70
2022/12/04 02:50:14;;;;;;;13.43;8.00;;;19.20;54.50;;;;;;6270082;28;20087;-71
2022/12/04 02:53:30;;;;;;;11.43;7.68;;;19.20;54.50;;;;;;6270403;28;20032;-71
2022/12/04 02:56:36;;;;;;;12.18;8.30;;;19.20;54.40;;;;;;6245369;28;20033;-71
2022/12/04 02:59:41;;;;;;;13.23;7.93;;;19.20;54.50;;;;;;6278620;28;20492;-71
2022/12/04 03:02:52;;;;;;;11.73;7.82;;;19.20;54.50;;;;;;6279011;28;20028;-70
2022/12/04 03:06:06;;;;;;;13.38;8.40;;;19.20;54.50;;;;;;6265331;28;20039;-70
2022/12/04 03:09:24;;;;;;;11.30;7.55;;;19.20;54.50;;;;;;6269729;28;20124;-70
2022/12/04 03:12:43;;;;;;;12.35;8.40;;;19.20;54.50;;;;;;6270768;28;20032;-71
2022/12/04 03:16:13;;;;;;;11.13;7.43;;;19.20;54.50;;;;;;6272462;28;20021;-70
2022/12/04 03:19:50;;;;;;;12.43;8.48;;;19.20;54.50;;;;;;6270149;28;20056;-70
2022/12/04 03:23:02;;;;;;;11.95;7.72;;;19.20;54.50;;;;;;6270935;28;20040;-70
2022/12/04 03:26:21;;;;;;;13.18;7.85;;;19.20;54.50;;;;;;6271843;28;20060;-70
2022/12/04 03:29:26;;;;;;;11.80;7.75;;;19.20;54.50;;;;;;6270582;28;20390;-70
2022/12/04 03:32:41;;;;;;;12.57;8.05;;;19.20;54.50;;;;;;6270376;28;20032;-71
2022/12/04 03:35:54;;;;;;;;;;;19.20;54.50;;;;;;6272347;28;20052;-70
2022/12/04 03:39:27;;;;;;;15.18;8.18;;;19.20;54.50;;;;;;6270472;28;19912;-70
2022/12/04 03:42:38;;;;;;;11.50;7.70;;;19.20;54.60;;;;;;6263047;28;20029;-70
2022/12/04 03:45:49;;;;;;;12.65;7.95;;;19.20;54.60;;;;;;6271984;28;20029;-70
2022/12/04 03:48:57;;;;;;;12.50;8.50;;;19.20;54.60;;;;;;6270004;28;20092;-70
2022/12/04 03:52:08;;;;;;;13.40;8.07;;;19.20;54.60;;;;;;6271349;28;20049;-70
2022/12/04 03:55:27;;;;;;;11.48;8.05;;;19.20;54.60;;;;;;6266858;28;20132;-70
2022/12/04 03:58:31;;;;;;;12.13;7.93;;;19.20;54.60;;;;;;6271023;28;20024;-70
2022/12/04 04:01:38;;;;;;;12.65;8.30;;;19.20;54.60;;;;;;6270173;28;20025;-70
2022/12/04 04:04:42;;;;;;;14.65;9.00;;;19.20;54.60;;;;;;6271782;28;20502;-71
2022/12/04 04:08:24;;;;;;;11.60;7.93;;;19.20;54.50;;;;;;6246869;28;20112;-71
2022/12/04 04:11:32;;;;;;;11.93;7.45;;;19.20;54.50;;;;;;6261104;28;20025;-70
2022/12/04 04:25:01;;;;;;;11.45;7.88;;;19.20;54.60;;;;;;6269548;28;20029;-70
2022/12/04 04:28:01;;;;;;;13.40;8.20;;;19.20;54.60;;;;;;6244840;28;20395;-70
2022/12/04 04:31:35;;;;;;;12.05;8.85;;;19.20;54.60;;;;;;6250829;28;20266;-71
2022/12/04 04:34:51;;;;;;;12.80;8.32;;;19.20;54.60;;;;;;6269495;28;20013;-70
2022/12/04 04:38:04;;;;;;;11.10;8.18;;;19.20;54.60;;;;;;6269218;28;20025;-70
2022/12/04 04:41:18;;;;;;;12.77;7.78;;;19.20;54.60;;;;;;6269019;28;20086;-70
2022/12/04 04:44:27;;;;;;;11.55;8.23;;;19.20;54.60;;;;;;6267891;28;20087;-71
2022/12/04 04:47:31;;;;;;;13.38;8.77;;;19.20;54.60;;;;;;6267411;28;20029;-70
2022/12/04 04:50:33;;;;;;;11.93;8.20;;;19.20;54.60;;;;;;6267887;28;20055;-70
2022/12/04 04:53:45;;;;;;;12.45;8.27;;;19.20;54.60;;;;;;6268559;28;20444;-70
2022/12/04 04:56:46;;;;;;;13.10;8.80;;;19.20;54.60;;;;;;6269003;28;20083;-70
2022/12/04 05:00:38;;;;;;;13.27;8.43;;;19.20;54.60;;;;;;6268653;28;20049;-70
2022/12/04 05:03:40;;;;;;;12.63;8.10;;;19.10;54.50;;;;;;6242722;28;20025;-70
2022/12/04 05:06:40;;;;;;;12.68;8.40;;;19.20;54.60;;;;;;6244070;28;20025;-70
2022/12/04 05:09:41;;;;;;;12.93;8.73;;;19.20;54.60;;;;;;6246562;28;20372;-70
2022/12/04 05:12:42;;;;;;;12.07;8.20;;;19.20;54.60;;;;;;6268744;28;20100;-71
2022/12/04 05:15:42;;;;;;;12.80;8.68;;;19.20;54.60;;;;;;6267248;28;20029;-70
2022/12/04 05:19:52;;;;;;;13.55;8.30;;;19.20;54.50;;;;;;6267096;28;20036;-70
2022/12/04 05:22:06;;;;;;;11.65;8.13;;;19.20;54.60;;;;;;6268256;28;20103;-70
2022/12/04 05:25:07;;;;;;;13.25;8.80;;;19.20;54.60;;;;;;6268356;28;20035;-71
2022/12/04 05:28:08;;;;;;;15.25;9.20;;;19.20;54.60;;;;;;6268462;28;20052;-70
2022/12/04 05:31:09;;;;;;;12.35;7.90;;;19.20;54.60;;;;;;6267196;28;20035;-71
2022/12/04 05:34:09;;;;;;;12.57;8.75;;;19.20;54.60;;;;;;6268217;28;20040;-71
2022/12/04 05:37:10;;;;;;;13.32;8.75;;;19.20;54.60;;;;;;6266517;28;20021;-70
2022/12/04 05:40:11;;;;;;;12.48;8.80;;;19.20;54.60;;;;;;6267589;28;20047;-70
2022/12/04 05:43:11;;;;;;;13.88;8.75;;;19.20;54.60;;;;;;6272963;28;20028;-71
2022/12/04 05:46:12;;;;;;;12.10;8.25;;;19.20;54.60;;;;;;6273374;28;20052;-70
2022/12/04 05:49:13;;;;;;;12.13;8.45;;;19.20;54.60;;;;;;6272263;28;20049;-70
2022/12/04 05:52:13;;;;;;;13.13;8.93;;;19.20;54.60;;;;;;6271835;28;20401;-70
2022/12/04 05:55:14;;;;;;;13.75;8.68;;;19.20;54.60;;;;;;6271562;28;20132;-71
2022/12/04 05:58:15;;;;;;;12.05;8.30;;;19.20;54.60;;;;;;6272870;28;20159;-70
2022/12/04 06:01:19;;;;;;;11.93;7.80;;;19.20;54.60;;;;;;6272027;28;20028;-71
2022/12/04 06:04:19;;;;;;;13.43;8.68;;;19.20;54.60;;;;;;6272589;28;20465;-70
2022/12/04 06:07:20;;;;;;;13.63;8.95;;;19.20;54.60;;;;;;6271112;28;20082;-70
2022/12/04 06:10:21;;;;;;;13.23;9.10;;;19.20;54.60;;;;;;6272652;28;20052;-71
2022/12/04 06:13:21;;;;;;;12.90;8.75;;;19.20;54.60;;;;;;6272699;28;20096;-71
2022/12/04 06:16:32;;;;;;;11.75;7.95;;;19.20;54.60;;;;;;6272485;28;20029;-70
2022/12/04 06:19:33;;;;;;;12.43;8.45;;;19.20;54.60;;;;;;6271076;28;20025;-70
2022/12/04 06:22:33;;;;;;;15.45;9.48;;;19.20;54.60;;;;;;6270791;28;20048;-71
2022/12/04 06:25:35;;;;;;;13.30;8.55;;;19.20;54.60;;;;;;6272254;28;20410;-71
2022/12/04 06:28:36;;;;;;;12.40;8.63;;;19.20;54.60;;;;;;6271015;28;20159;-70
2022/12/04 06:31:37;;;;;;;12.73;9.23;;;19.20;54.60;;;;;;6270957;28;20033;-71
2022/12/04 06:34:38;;;;;;;13.45;9.07;;;19.20;54.60;;;;;;6270601;28;20024;-71
2022/12/04 06:37:38;;;;;;;12.38;8.18;;;19.20;54.60;;;;;;6272007;28;20071;-70
2022/12/04 06:40:39;;;;;;;14.15;9.07;;;19.20;54.60;;;;;;6270779;28;20495;-71
2022/12/04 06:43:40;;;;;;;11.68;8.35;;;19.20;54.60;;;;;;6271877;28;20025;-71
2022/12/04 06:46:41;;;;;;;14.00;8.90;;;19.20;54.60;;;;;;6271727;28;20562;-70
2022/12/04 06:49:42;;;;;;;12.02;8.27;;;19.20;54.60;;;;;;6271824;28;20063;-71
2022/12/04 06:52:44;;;;;;;14.20;9.07;;;19.20;54.60;;;;;;6270353;28;20037;-71
2022/12/04 06:55:48;;;;;;;13.25;8.98;;;19.20;54.60;;;;;;6270032;28;20525;-70
2022/12/04 06:58:52;;;;;;;11.52;8.30;;;19.20;54.60;;;;;;6270338;28;20368;-71
2022/12/04 07:01:52;;;;;;;13.07;8.63;;;19.20;54.60;;;;;;6271491;28;20139;-70
2022/12/04 07:04:55;;;;;;;13.15;8.38;;;19.20;54.60;;;;;;6262533;28;20037;-71
2022/12/04 07:07:55;;;;;;;12.75;8.85;;;19.20;54.60;;;;;;6268632;28;20374;-71
2022/12/04 07:10:56;;;;;;;11.48;8.30;;;19.20;54.60;;;;;;6264473;28;20051;-71
2022/12/04 07:13:57;;;;;;;12.50;8.73;;;19.20;54.60;;;;;;6269966;28;20053;-70
2022/12/04 07:16:57;;;;;;;12.82;8.27;;;19.20;54.60;;;;;;6272082;28;20025;-71
2022/12/04 07:19:58;;;;;;;13.55;8.73;;;19.20;54.60;;;;;;6269836;28;20068;-70
2022/12/04 07:22:58;;;;;;;12.38;8.05;;;19.20;54.60;;;;;;6281741;28;20435;-71
2022/12/04 07:26:07;;;;;;;13.40;9.20;;;19.20;54.60;;;;;;6272718;28;20559;-71
2022/12/04 07:29:09;;;;;;;11.70;7.75;;;19.20;54.60;;;;;;6268169;28;20165;-72
2022/12/04 07:32:10;;;;;;;12.80;8.45;;;19.20;54.60;;;;;;6268311;28;20031;-70
2022/12/04 07:35:12;;;;;;;13.05;8.55;;;19.20;54.70;;;;;;6268864;28;20025;-71
2022/12/04 07:38:13;;;;;;;13.23;8.50;;;19.20;54.60;;;;;;6268031;28;20032;-71
2022/12/04 07:41:14;;;;;;;13.20;8.98;;;19.20;54.60;;;;;;6269284;28;20048;-71
2022/12/04 07:44:15;;;;;;;13.20;8.50;;;19.20;54.70;;;;;;6292905;28;20020;-70
2022/12/04 07:47:16;;;;;;;14.60;9.18;;;19.20;54.60;;;;;;6283005;28;20033;-70
2022/12/04 07:50:16;;;;;;;14.23;8.63;;;19.20;54.70;;;;;;6268825;28;20037;-71
2022/12/04 07:53:17;;;;;;;12.77;8.80;;;19.20;54.70;;;;;;6271869;28;20453;-71
2022/12/04 07:56:18;;;;;;;12.30;8.23;;;19.20;54.70;;;;;;6259319;28;20127;-71
2022/12/04 07:59:19;;;;;;;12.68;8.55;;;19.20;54.70;;;;;;6266260;28;20052;-71
2022/12/04 08:02:20;;;;;;;13.27;9.00;;;19.20;54.80;;;;;;6269970;28;20681;-71
2022/12/04 08:05:21;;;;;;;11.77;7.72;;;19.20;54.70;;;;;;6267511;28;20021;-71
2022/12/04 08:08:22;;;;;;;12.50;7.95;;;19.20;54.70;;;;;;6261085;28;20041;-71
2022/12/04 08:11:25;;;;;;;11.63;8.10;;;19.20;54.80;;;;;;6254642;28;20450;-71
2022/12/04 08:14:26;;;;;;;13.23;9.05;;;19.20;54.80;;;;;;6268667;28;20056;-71
2022/12/04 08:17:27;;;;;;;13.00;8.40;;;19.20;54.80;;;;;;6272839;28;20027;-71
2022/12/04 08:20:27;;;;;;;12.23;8.40;;;19.20;54.80;;;;;;6278577;28;20028;-71
2022/12/04 08:23:28;;;;;;;12.98;8.82;;;19.20;54.80;;;;;;6276357;28;20024;-71
2022/12/04 08:26:29;;;;;;;16.50;8.10;;;19.20;54.70;;;;;;6289356;28;20409;-72
2022/12/04 08:29:30;;;;;;;13.68;8.75;;;19.20;54.80;;;;;;6275095;28;20028;-71
2022/12/04 08:32:32;;;;;;;12.50;7.90;;;19.20;54.80;;;;;;6267777;28;20059;-71
2022/12/04 08:35:33;;;;;;;10.82;8.10;;;19.20;54.90;;;;;;6291609;28;20024;-71
2022/12/04 08:38:34;;;;;;;13.13;8.88;;;19.20;54.90;;;;;;6283667;28;20025;-71
2022/12/04 08:41:35;;;;;;;12.88;8.48;;;19.20;54.80;;;;;;6268144;28;20568;-71
2022/12/04 08:44:35;;;;;;;14.20;8.45;;;19.20;54.90;;;;;;6266873;28;20115;-71
2022/12/04 08:47:36;;;;;;;13.00;8.60;;;19.20;54.80;;;;;;6266976;28;20029;-71
2022/12/04 08:50:42;;;;;;;12.63;8.48;;;19.20;54.80;;;;;;6273864;28;20035;-71
2022/12/04 08:53:43;;;;;;;15.63;8.57;;;19.20;54.70;;;;;;6275537;28;20105;-71
2022/12/04 08:56:44;;;;;;;12.13;8.23;;;19.20;54.80;;;;;;6271275;28;20028;-71
2022/12/04 08:59:45;;;;;;;12.63;8.15;;;19.20;54.80;;;;;;6266692;28;20021;-71
2022/12/04 09:02:49;;;;;;;12.57;8.23;;;19.20;54.80;;;;;;6266853;28;20029;-71
2022/12/04 09:05:49;;;;;;;13.40;8.60;;;19.20;54.80;;;;;;6268164;28;20033;-71
2022/12/04 09:08:54;;;;;;;10.73;7.35;;;19.20;54.80;;;;;;6274244;28;20029;-71
2022/12/04 09:11:55;;;;;;;;;;;19.20;54.90;;;;;;6270881;28;20028;-71
2022/12/04 09:14:56;;;;;;;13.85;8.93;;;19.20;54.90;;;;;;6266579;28;19905;-69
2022/12/04 09:17:57;;;;;;;15.60;9.38;;;19.20;54.90;;;;;;6267390;28;20040;-70
2022/12/04 09:20:59;;;;;;;13.18;8.35;;;19.20;54.90;;;;;;6279779;28;20482;-69
2022/12/04 09:24:00;;;;;;;11.45;7.97;;;19.20;54.90;;;;;;6272260;28;20119;-69
2022/12/04 09:27:01;;;;;;;14.65;8.30;;;19.20;54.90;;;;;;6292302;28;20433;-69
2022/12/04 09:30:02;;;;;;;13.10;8.98;;;19.20;54.90;;;;;;6293070;28;20027;-70
2022/12/04 09:33:02;;;;;;;14.50;7.93;;;19.20;55.00;;;;;;6290172;28;20024;-69
2022/12/04 09:36:03;;;;;;;12.10;8.20;;;19.20;54.90;;;;;;6289848;28;20075;-69
2022/12/04 09:39:04;;;;;;;15.95;8.88;;;19.20;54.90;;;;;;6291733;28;20086;-70
2022/12/04 09:42:17;;;;;;;12.40;8.73;;;19.20;55.00;;;;;;6292778;28;20021;-69
2022/12/04 09:45:21;;;;;;;11.95;8.32;;;19.20;55.00;;;;;;6291329;28;20097;-69
2022/12/04 09:48:36;;;;;;;14.82;9.13;;;19.20;54.90;;;;;;6291934;28;20030;-69
2022/12/04 09:51:39;;;;;;;11.35;8.00;;;19.20;54.80;;;;;;6292412;28;20028;-69
2022/12/04 09:54:42;;;;;;;12.38;7.95;;;19.30;54.80;;;;;;6292868;28;20080;-69
2022/12/04 09:57:48;;;;;;;13.18;7.07;;;19.30;54.60;;;;;;6291060;28;20036;-69
2022/12/04 10:00:52;;;;;;;12.40;7.25;;;19.30;54.50;;;;;;6292349;28;20020;-69
2022/12/04 10:03:54;;;;;;;10.38;7.68;;;19.40;54.50;;;;;;6293068;28;20036;-68
2022/12/04 10:07:14;;;;;;;12.38;7.93;;;19.40;54.40;;;;;;6292879;28;20107;-69
2022/12/04 10:10:41;;;;;;;12.95;7.82;;;19.40;54.30;;;;;;6292247;28;20493;-69
2022/12/04 10:13:55;;;;;;;12.00;7.90;;;19.40;54.30;;;;;;6292354;28;20117;-69
2022/12/04 10:17:21;;;;;;;12.95;8.52;;;19.40;54.40;;;;;;6291472;28;20111;-71
2022/12/04 10:20:27;;;;;;;;;;;19.40;54.40;;;;;;6292528;28;20031;-69
2022/12/04 10:23:41;;;;;;;12.73;7.95;;;19.40;54.50;;;;;;6286596;28;19905;-69
2022/12/04 10:26:46;;;;;;;11.60;7.55;;;19.40;54.50;;;;;;6294082;28;20067;-69
2022/12/04 10:29:54;;;;;;;11.90;8.10;;;19.40;54.60;;;;;;6295154;28;20102;-69
2022/12/04 10:33:16;;;;;;;11.52;7.93;;;19.40;54.60;;;;;;6295724;28;20102;-69
2022/12/04 10:36:20;;;;;;;11.60;8.40;;;19.40;54.60;;;;;;6291152;28;20031;-69
2022/12/04 10:39:47;;;;;;;11.90;7.63;;;19.40;54.60;;;;;;6295534;28;20037;-70
2022/12/04 10:43:14;;;;;;;10.93;8.02;;;19.40;54.70;;;;;;6277849;28;20105;-69
2022/12/04 10:46:22;;;;;;;11.55;7.90;;;19.40;54.70;;;;;;6296916;28;20020;-69
2022/12/04 10:49:26;;;;;;;13.38;7.85;;;19.40;54.70;;;;;;6295066;28;20028;-69
2022/12/04 10:52:27;;;;;;;12.80;8.32;;;19.40;54.70;;;;;;6295362;28;20100;-69
2022/12/04 10:55:33;;;;;;;11.23;7.60;;;19.40;54.60;;;;;;6294988;28;20052;-69
2022/12/04 10:58:34;;;;;;;12.20;7.53;;;19.40;54.70;;;;;;6296478;28;20021;-69
2022/12/04 11:01:36;;;;;;;11.18;7.72;;;19.40;54.70;;;;;;6296237;28;20028;-69
2022/12/04 11:04:37;;;;;;;11.45;7.90;;;19.40;54.70;;;;;;6295910;28;20013;-69
2022/12/04 11:07:47;;;;;;;12.50;7.53;;;19.40;54.70;;;;;;6296348;28;20100;-69
2022/12/04 11:11:00;;;;;;;11.90;8.27;;;19.40;55.00;;;;;;6294687;28;20602;-69
2022/12/04 11:14:12;;;;;;;13.32;8.07;;;19.40;54.70;;;;;;6294887;28;20024;-69
2022/12/04 11:17:17;;;;;;;10.20;7.38;;;19.40;54.70;;;;;;6296271;28;20074;-69
2022/12/04 11:20:27;;;;;;;11.27;8.02;;;19.40;54.70;;;;;;6294299;28;20125;-70
2022/12/04 11:23:31;;;;;;;12.77;7.82;;;19.40;54.70;;;;;;6294776;28;20021;-70
2022/12/04 11:26:40;;;;;;;15.35;7.95;;;19.40;54.70;;;;;;6295008;28;20119;-68
2022/12/04 11:29:44;;;;;;;12.15;7.47;;;19.40;54.70;;;;;;6295406;28;20064;-71
2022/12/04 11:32:46;;;;;;;11.70;8.00;;;19.40;54.70;;;;;;6295689;28;20036;-69
2022/12/04 11:35:54;;;;;;;12.18;8.20;;;19.40;54.70;;;;;;6295517;28;20028;-69
2022/12/04 11:39:10;;;;;;;10.68;7.28;;;19.40;54.70;;;;;;6293804;28;20134;-69
2022/12/04 11:42:26;;;;;;;11.15;8.10;;;19.40;54.70;;;;;;6293654;28;20024;-69
2022/12/04 11:45:26;;;;;;;10.70;7.55;;;19.40;54.70;;;;;;6293747;28;20020;-69
2022/12/04 11:48:39;;;;;;;117.95;13.13;;;19.40;54.80;;;;;;6295339;28;20562;-69
2022/12/04 11:52:01;;;;;;;218.27;10.70;;;19.60;55.50;;;;;;6293195;28;20127;-70
2022/12/04 11:55:28;;;;;;;63.25;8.18;;;19.70;54.50;;;;;;6293291;28;20048;-69
2022/12/04 11:58:40;;;;;;;46.20;8.52;;;19.70;54.40;;;;;;6294953;28;20017;-69
2022/12/04 12:01:46;;;;;;;51.53;9.10;;;19.70;54.60;;;;;;6293454;28;20028;-70
2022/12/04 12:05:01;;;;;;;55.63;8.75;;;19.70;54.00;;;;;;6294466;28;20017;-70
2022/12/04 12:08:22;;;;;;;29.15;9.13;;;19.80;54.20;;;;;;6293246;28;20103;-69
2022/12/04 12:11:42;;;;;;;25.73;8.20;;;19.70;54.40;;;;;;6273228;28;20551;-71
2022/12/04 12:14:57;;;;;;;30.50;8.63;;;19.70;54.40;;;;;;6270478;28;20037;-69
2022/12/04 12:18:18;;;;;;;22.77;8.13;;;19.60;54.30;;;;;;6270160;28;20025;-69
2022/12/04 12:21:32;;;;;;;21.88;8.32;;;19.60;54.40;;;;;;6275834;28;20021;-68
2022/12/04 12:24:57;;;;;;;17.95;8.07;;;19.60;54.40;;;;;;6268574;28;20033;-68
2022/12/04 12:28:12;;;;;;;17.10;7.93;;;19.60;54.50;;;;;;6269087;28;20104;-69
2022/12/04 12:31:21;;;;;;;16.90;8.80;;;19.60;54.50;;;;;;6263610;28;20096;-69
2022/12/04 12:34:34;;;;;;;15.52;7.10;;;19.60;54.60;;;;;;6246799;28;20112;-69
2022/12/04 12:37:47;;;;;;;18.10;8.18;;;19.60;54.60;;;;;;6278526;28;20032;-68
2022/12/04 12:40:54;;;;;;;13.85;8.20;;;19.60;54.80;;;;;;6268934;28;20027;-69
2022/12/04 12:44:04;;;;;;;16.27;8.48;;;19.60;54.60;;;;;;6268816;28;20105;-69
2022/12/04 12:47:12;;;;;;;16.38;7.95;;;19.60;54.50;;;;;;6267840;28;20025;-68
2022/12/04 12:50:37;;;;;;;12.35;7.35;;;19.60;54.50;;;;;;6266625;28;20027;-69
2022/12/04 12:53:43;;;;;;;13.27;7.60;;;19.70;54.50;;;;;;6268813;28;20028;-68
2022/12/04 12:56:49;;;;;;;12.57;7.30;;;19.60;54.30;;;;;;6268590;28;20511;-69
2022/12/04 12:59:55;;;;;;;11.57;7.38;;;19.70;54.40;;;;;;6268481;28;20051;-69
2022/12/04 13:03:14;;;;;;;11.85;7.70;;;19.70;54.30;;;;;;6267360;28;20017;-68
2022/12/04 13:06:22;;;;;;;13.50;7.55;;;19.70;54.30;;;;;;6268535;28;20048;-68
2022/12/04 13:09:34;;;;;;;10.60;7.20;;;19.70;55.10;;;;;;6266953;28;20079;-68
2022/12/04 13:12:51;;;;;;;11.85;7.65;;;19.60;54.30;;;;;;6268703;28;20052;-69
2022/12/04 13:16:02;;;;;;;12.02;8.05;;;19.70;54.30;;;;;;6243882;28;20056;-68
2022/12/04 13:19:05;;;;;;;12.13;7.50;;;19.70;54.30;;;;;;6252829;28;20060;-68
2022/12/04 13:22:19;;;;;;;11.75;7.32;;;19.70;54.30;;;;;;6266769;28;20461;-69
2022/12/04 13:25:45;;;;;;;12.32;7.68;;;19.70;54.20;;;;;;6267519;28;20021;-70
2022/12/04 13:29:11;;;;;;;10.77;7.68;;;19.70;55.00;;;;;;6266337;28;20017;-70
2022/12/04 13:32:49;;;;;;;13.18;7.20;;;19.70;54.50;;;;;;6266333;28;20021;-69
2022/12/04 13:35:53;;;;;;;13.65;7.75;;;19.70;54.60;;;;;;6264473;28;20017;-69
2022/12/04 13:39:41;;;;;;;14.43;7.63;;;19.60;54.50;;;;;;6266994;28;20047;-68
2022/12/04 13:42:42;;;;;;;14.45;7.60;;;19.60;54.60;;;;;;6244886;28;20044;-69
2022/12/04 13:45:45;;;;;;;18.00;7.97;;;19.60;54.60;;;;;;6266909;28;20021;-69
2022/12/04 13:48:46;;;;;;;11.30;7.07;;;19.60;54.70;;;;;;6268659;28;20037;-68
2022/12/04 13:51:48;;;;;;;10.45;7.35;;;19.60;54.70;;;;;;6291159;28;20095;-68
2022/12/04 13:54:57;;;;;;;12.15;7.22;;;19.60;54.70;;;;;;6286875;28;20179;-68
2022/12/04 13:58:00;;;;;;;10.98;6.30;;;19.60;54.80;;;;;;6266586;28;20113;-69
2022/12/04 14:01:11;;;;;;;13.85;7.32;;;19.50;54.70;;;;;;6289695;28;20075;-68
2022/12/04 14:04:51;;;;;;;10.05;7.40;;;19.50;54.70;;;;;;6295104;28;20036;-68
2022/12/04 14:08:04;;;;;;;12.45;7.93;;;19.50;54.70;;;;;;6296147;28;20381;-68
2022/12/04 14:11:16;;;;;;;11.55;6.95;;;19.50;54.70;;;;;;6276296;28;20029;-68
2022/12/04 14:14:45;;;;;;;10.82;7.13;;;19.50;54.80;;;;;;6273216;28;20561;-68
2022/12/04 14:18:10;;;;;;;10.77;7.00;;;19.50;54.80;;;;;;6282270;28;20370;-68
2022/12/04 14:21:11;;;;;;;10.50;6.72;;;19.50;54.80;;;;;;6277951;28;20017;-68
2022/12/04 14:24:27;;;;;;;10.60;6.90;;;19.50;54.80;;;;;;6269816;28;20052;-68
2022/12/04 14:27:40;;;;;;;11.77;7.57;;;19.50;54.80;;;;;;6244506;28;20027;-67
2022/12/04 14:30:43;;;;;;;11.68;7.43;;;19.50;54.80;;;;;;6251523;28;20025;-68
2022/12/04 14:33:48;;;;;;;9.68;6.80;;;19.50;54.80;;;;;;6270940;28;20022;-68
2022/12/04 14:36:52;;;;;;;11.50;7.78;;;19.50;54.80;;;;;;6268057;28;20027;-68
2022/12/04 14:39:52;;;;;;;10.85;7.38;;;19.50;54.90;;;;;;6245825;28;20123;-68
2022/12/04 14:42:54;;;;;;;11.38;7.38;;;19.50;54.80;;;;;;6293676;28;20528;-69
2022/12/04 14:46:21;;;;;;;11.70;7.85;;;19.50;54.80;;;;;;6285847;28;20098;-68
2022/12/04 14:49:24;;;;;;;11.88;7.75;;;19.50;54.80;;;;;;6249339;28;20027;-67
2022/12/04 14:52:51;;;;;;;12.80;8.20;;;19.50;54.80;;;;;;6281541;28;20723;-67
2022/12/04 14:56:10;;;;;;;11.65;7.35;;;19.50;54.80;;;;;;6290041;28;20132;-67
2022/12/04 14:59:23;;;;;;;11.23;7.30;;;19.50;54.90;;;;;;6268710;28;20102;-67
2022/12/04 15:02:56;;;;;;;11.15;7.35;;;19.50;54.80;;;;;;6268147;28;20045;-67
2022/12/04 15:06:12;;;;;;;13.40;8.02;;;19.50;54.90;;;;;;6261013;28;20037;-67
2022/12/04 15:12:53;;;;;;;13.93;7.63;;;19.60;54.80;;;;;;6261897;28;20041;-67
2022/12/04 15:15:55;;;;;;;13.20;7.43;;;19.60;54.60;;;;;;6258361;28;20032;-66
2022/12/04 15:18:59;;;;;;;13.57;7.38;;;19.60;54.60;;;;;;6290539;28;20029;-65
2022/12/04 15:22:01;;;;;;;11.63;6.07;;;19.60;55.60;;;;;;6271179;28;20052;-67
2022/12/04 15:25:04;;;;;;;13.07;7.13;;;19.60;55.10;;;;;;6268147;28;20021;-67
2022/12/04 15:28:16;;;;;;;15.40;8.00;;;19.50;55.00;;;;;;6269236;28;20028;-67
2022/12/04 15:31:30;;;;;;;15.02;7.43;;;19.50;55.00;;;;;;6272118;28;20024;-67
2022/12/04 15:34:46;;;;;;;12.38;7.72;;;19.50;55.00;;;;;;6292788;28;20032;-67
2022/12/04 15:37:47;;;;;;;13.38;7.65;;;19.50;55.00;;;;;;6269561;28;20486;-67
2022/12/04 15:40:51;;;;;;;13.07;7.18;;;19.50;55.70;;;;;;6268694;28;20052;-67
2022/12/04 15:43:52;;;;;;;14.15;7.53;;;19.50;55.00;;;;;;6292592;28;20073;-67
2022/12/04 15:46:55;;;;;;;10.95;7.43;;;19.50;55.10;;;;;;6289117;28;20025;-67
2022/12/04 15:50:25;;;;;;;11.20;7.47;;;19.50;55.20;;;;;;6268727;28;20029;-67
2022/12/04 15:53:31;;;;;;;11.63;7.70;;;19.50;55.10;;;;;;6269127;28;20079;-66
2022/12/04 15:56:31;;;;;;;;;;;19.50;55.20;;;;;;6266075;28;20070;-67
2022/12/04 15:59:35;;;;;;;10.93;7.10;;;19.50;55.10;;;;;;6267365;28;20474;-67
2022/12/04 16:02:41;;;;;;;11.13;6.85;;;19.50;55.10;;;;;;6278648;28;20020;-67
2022/12/04 16:05:42;;;;;;;11.73;7.43;;;19.50;55.20;;;;;;6284166;28;20029;-67
2022/12/04 16:08:45;;;;;;;12.30;7.25;;;19.50;55.20;;;;;;6281517;28;20074;-67
2022/12/04 16:12:16;;;;;;;14.05;7.95;;;19.50;55.10;;;;;;6268149;28;20025;-67
2022/12/04 16:15:16;;;;;;;14.88;7.90;;;19.50;55.20;;;;;;6267862;28;20037;-67
2022/12/04 16:18:18;;;;;;;20.10;7.20;;;19.50;55.20;;;;;;6267036;28;20088;-67